Time;durP1;ratioP1;P1;durP2;ratioP2;P2;SDS_P1;SDS_P2;PMS_P1;PMS_P2;Temp;Humidity;BMP_temperature;BMP_pressure;BME280_temperature;BME280_humidity;BME280_pressure;Samples;Min_cycle;Max_cycle;Signal;HPM_P1;HPM_P2
2021/11/20 00:02:22;0.00;0.00;0.62;0.00;0.00;0.62;2.83;1.57;;;23.80;33.40;;;;;;2236838;62;20404;-64
2021/11/20 00:05:12;0.00;0.00;0.62;0.00;0.00;0.62;1.80;1.10;;;23.80;32.70;;;;;;2237382;62;20586;-65
2021/11/20 00:07:58;0.00;0.00;0.62;0.00;0.00;0.62;2.10;1.60;;;23.80;32.70;;;;;;2237271;62;20394;-65
2021/11/20 00:10:49;0.00;0.00;0.62;0.00;0.00;0.62;1.73;1.30;;;23.80;32.70;;;;;;2237501;62;20391;-66
2021/11/20 00:13:35;0.00;0.00;0.62;0.00;0.00;0.62;2.10;1.30;;;23.80;32.70;;;;;;2237315;62;20429;-66
2021/11/20 00:16:23;0.00;0.00;0.62;0.00;0.00;0.62;3.43;1.40;;;23.80;32.60;;;;;;2236588;62;20367;-64
2021/11/20 00:18:52;0.00;0.00;0.62;0.00;0.00;0.62;2.13;1.43;;;23.80;32.70;;;;;;2237631;62;20391;-63
2021/11/20 00:21:45;0.00;0.00;0.62;0.00;0.00;0.62;2.30;1.40;;;23.80;32.60;;;;;;2237589;62;20363;-66
2021/11/20 00:24:34;0.00;0.00;0.62;0.00;0.00;0.62;3.80;1.33;;;23.80;32.60;;;;;;2236603;62;20407;-64
2021/11/20 00:27:23;0.00;0.00;0.62;0.00;0.00;0.62;1.50;1.23;;;23.80;32.60;;;;;;2237208;62;20460;-65
2021/11/20 00:33:05;0.00;0.00;0.62;0.00;0.00;0.62;2.23;1.60;;;23.80;32.60;;;;;;2237346;62;20399;-66
2021/11/20 00:35:55;0.00;0.00;0.62;0.00;0.00;0.62;2.00;1.63;;;23.80;32.50;;;;;;2236776;62;20456;-66
2021/11/20 00:38:41;0.00;0.00;0.62;0.00;0.00;0.62;2.30;1.50;;;23.80;32.50;;;;;;2236550;62;20391;-64
2021/11/20 00:41:29;0.00;0.00;0.62;0.00;0.00;0.62;1.93;1.47;;;23.70;32.30;;;;;;2236904;62;20612;-64
2021/11/20 00:44:16;0.00;0.00;0.62;0.00;0.00;0.62;2.43;1.60;;;23.70;32.30;;;;;;2237543;62;20383;-66
2021/11/20 00:47:01;0.00;0.00;0.62;0.00;0.00;0.62;4.93;1.53;;;23.70;32.30;;;;;;2236608;62;20435;-65
2021/11/20 00:49:47;0.00;0.00;0.62;0.00;0.00;0.62;3.27;1.70;;;23.70;32.30;;;;;;2237208;62;20418;-66
2021/11/20 00:52:33;0.00;0.00;0.62;0.00;0.00;0.62;2.30;1.53;;;23.70;32.30;;;;;;2237159;62;20583;-66
2021/11/20 00:55:23;0.00;0.00;0.62;0.00;0.00;0.62;3.10;2.50;;;23.70;32.30;;;;;;2237655;62;20371;-65
2021/11/20 00:58:08;0.00;0.00;0.62;0.00;0.00;0.62;2.93;1.30;;;23.70;32.30;;;;;;2237192;62;20804;-64
2021/11/20 01:00:56;0.00;0.00;0.62;0.00;0.00;0.62;3.03;2.10;;;23.70;32.30;;;;;;2236124;62;20351;-64
2021/11/20 01:03:43;0.00;0.00;0.62;0.00;0.00;0.62;2.97;1.90;;;23.70;32.20;;;;;;2236743;62;20364;-66
2021/11/20 01:06:29;0.00;0.00;0.62;0.00;0.00;0.62;2.80;1.83;;;23.70;32.20;;;;;;2236936;62;20362;-66
2021/11/20 01:09:21;0.00;0.00;0.62;0.00;0.00;0.62;4.57;2.37;;;23.70;32.10;;;;;;2236784;62;20411;-65
2021/11/20 01:12:09;0.00;0.00;0.62;0.00;0.00;0.62;5.73;3.10;;;23.70;32.10;;;;;;2236691;62;20451;-63
2021/11/20 01:14:54;0.00;0.00;0.62;0.00;0.00;0.62;2.77;2.03;;;23.60;31.90;;;;;;2236396;62;20371;-65
2021/11/20 01:17:39;0.00;0.00;0.62;0.00;0.00;0.62;2.80;1.70;;;23.60;31.90;;;;;;2236936;62;20451;-64
2021/11/20 01:20:25;0.00;0.00;0.62;0.00;0.00;0.62;4.13;2.50;;;23.60;31.90;;;;;;2236738;62;20392;-64
2021/11/20 01:23:14;0.00;0.00;0.62;0.00;0.00;0.62;3.40;1.80;;;23.60;31.90;;;;;;2236152;62;20391;-65
2021/11/20 01:26:04;0.00;0.00;0.62;0.00;0.00;0.62;4.60;2.43;;;23.50;31.90;;;;;;2236898;62;20414;-65
2021/11/20 01:29:01;0.00;0.00;0.62;0.00;0.00;0.62;2.50;1.53;;;23.50;31.90;;;;;;2236837;62;20371;-65
2021/11/20 01:31:55;0.00;0.00;0.62;0.00;0.00;0.62;3.67;2.57;;;23.50;32.60;;;;;;2236414;62;20594;-65
2021/11/20 01:34:42;0.00;0.00;0.62;0.00;0.00;0.62;3.43;2.53;;;23.50;31.90;;;;;;2236749;62;20448;-65
2021/11/20 01:37:27;0.00;0.00;0.62;0.00;0.00;0.62;3.80;2.10;;;23.40;31.90;;;;;;2235987;62;20427;-64
2021/11/20 01:40:17;0.00;0.00;0.62;0.00;0.00;0.62;4.33;2.30;;;23.40;31.90;;;;;;2236874;62;20715;-63
2021/11/20 01:43:06;0.00;0.00;0.62;0.00;0.00;0.62;3.73;2.20;;;23.40;32.00;;;;;;2237002;62;20626;-64
2021/11/20 01:45:56;0.00;0.00;0.62;0.00;0.00;0.62;4.40;1.97;;;23.30;31.90;;;;;;2236330;62;20443;-65
2021/11/20 01:49:02;0.00;0.00;0.62;0.00;0.00;0.62;5.70;2.40;;;23.30;31.90;;;;;;2237357;62;20391;-64
2021/11/20 01:51:52;0.00;0.00;0.62;0.00;0.00;0.62;4.70;1.97;;;23.30;32.00;;;;;;2237231;62;20384;-65
2021/11/20 01:54:50;0.00;0.00;0.62;0.00;0.00;0.62;4.23;2.30;;;23.30;32.00;;;;;;2237670;62;20502;-63
2021/11/20 01:57:54;0.00;0.00;0.62;0.00;0.00;0.62;5.17;2.10;;;23.20;32.60;;;;;;2237623;62;20462;-65
2021/11/20 02:00:47;0.00;0.00;0.62;0.00;0.00;0.62;2.60;2.07;;;23.20;31.90;;;;;;2236640;62;20359;-66
2021/11/20 02:03:47;0.00;0.00;0.62;0.00;0.00;0.62;3.00;2.13;;;23.20;32.00;;;;;;2234887;62;20375;-66
2021/11/20 02:06:55;0.00;0.00;0.62;0.00;0.00;0.62;4.03;2.40;;;23.20;32.00;;;;;;2236731;62;20375;-65
2021/11/20 02:09:47;0.00;0.00;0.62;0.00;0.00;0.62;5.10;2.30;;;23.10;32.00;;;;;;2237645;62;20390;-66
2021/11/20 02:12:42;0.00;0.00;0.62;0.00;0.00;0.62;4.00;2.30;;;23.10;32.00;;;;;;2237783;62;20371;-65
2021/11/20 02:15:40;0.00;0.00;0.62;0.00;0.00;0.62;5.37;2.10;;;23.10;32.00;;;;;;2236558;62;20371;-67
2021/11/20 02:18:30;0.00;0.00;0.62;0.00;0.00;0.62;3.13;2.13;;;23.10;32.10;;;;;;2237323;62;20468;-67
2021/11/20 02:21:22;0.00;0.00;0.62;0.00;0.00;0.62;3.83;2.73;;;23.10;32.10;;;;;;2237343;62;20473;-65
2021/11/20 02:24:11;0.00;0.00;0.62;0.00;0.00;0.62;2.83;1.90;;;23.00;32.00;;;;;;2237713;62;20423;-64
2021/11/20 02:27:17;0.00;0.00;0.62;0.00;0.00;0.62;3.33;2.13;;;23.00;32.10;;;;;;2237929;62;20597;-64
2021/11/20 02:30:18;0.00;0.00;0.62;0.00;0.00;0.62;2.80;2.00;;;23.00;32.00;;;;;;2236564;62;20383;-65
2021/11/20 02:33:06;0.00;0.00;0.62;0.00;0.00;0.62;4.13;2.63;;;23.00;32.10;;;;;;2237782;62;20383;-64
2021/11/20 02:36:04;0.00;0.00;0.62;0.00;0.00;0.62;4.83;2.27;;;23.00;32.10;;;;;;2237293;62;20367;-64
2021/11/20 02:38:59;0.00;0.00;0.62;0.00;0.00;0.62;3.50;2.17;;;23.00;32.10;;;;;;2237553;62;20391;-66
2021/11/20 02:41:47;0.00;0.00;0.62;0.00;0.00;0.62;3.80;2.17;;;22.90;32.10;;;;;;2237366;62;20432;-66
2021/11/20 02:44:34;0.00;0.00;0.62;0.00;0.00;0.62;3.73;2.03;;;22.90;32.10;;;;;;2236403;62;20590;-64
2021/11/20 02:47:28;0.00;0.00;0.62;0.00;0.00;0.62;2.70;1.97;;;22.90;32.10;;;;;;2237055;62;20383;-65
2021/11/20 02:50:15;0.00;0.00;0.62;0.00;0.00;0.62;3.17;1.70;;;23.00;32.20;;;;;;2237419;62;20399;-65
2021/11/20 02:53:01;0.00;0.00;0.62;0.00;0.00;0.62;3.60;1.80;;;23.00;32.20;;;;;;2237324;62;20771;-66
2021/11/20 02:55:48;0.00;0.00;0.62;0.00;0.00;0.62;3.20;1.70;;;23.00;32.20;;;;;;2237157;62;20368;-65
2021/11/20 02:58:34;0.00;0.00;0.62;0.00;0.00;0.62;2.50;2.13;;;22.90;32.20;;;;;;2236433;62;20459;-65
2021/11/20 03:01:22;0.00;0.00;0.62;0.00;0.00;0.62;3.63;1.90;;;22.90;32.20;;;;;;2237539;62;20706;-65
2021/11/20 03:04:13;0.00;0.00;0.62;0.00;0.00;0.62;4.30;2.20;;;22.90;32.20;;;;;;2237152;62;20395;-64
2021/11/20 03:06:59;0.00;0.00;0.62;0.00;0.00;0.62;3.83;2.47;;;22.90;32.30;;;;;;2236334;62;20391;-64
2021/11/20 03:09:46;0.00;0.00;0.62;0.00;0.00;0.62;3.63;2.20;;;22.90;32.30;;;;;;2237124;62;20502;-65
2021/11/20 03:12:39;0.00;0.00;0.62;0.00;0.00;0.62;3.20;2.20;;;22.90;32.30;;;;;;2237210;62;20404;-65
2021/11/20 03:15:25;0.00;0.00;0.62;0.00;0.00;0.62;3.03;1.63;;;22.90;32.30;;;;;;2236910;62;20438;-65
2021/11/20 03:18:10;0.00;0.00;0.62;0.00;0.00;0.62;4.33;2.13;;;22.90;32.40;;;;;;2237047;62;20755;-65
2021/11/20 03:20:57;0.00;0.00;0.62;0.00;0.00;0.62;2.77;2.03;;;22.80;32.30;;;;;;2236823;62;20463;-65
2021/11/20 03:23:47;0.00;0.00;0.62;0.00;0.00;0.62;4.10;1.73;;;22.80;32.30;;;;;;2237889;62;20411;-67
2021/11/20 03:26:32;0.00;0.00;0.62;0.00;0.00;0.62;3.43;2.00;;;22.80;32.30;;;;;;2237084;62;20411;-65
2021/11/20 03:29:18;0.00;0.00;0.62;0.00;0.00;0.62;4.53;2.13;;;22.80;32.30;;;;;;2236365;62;20367;-64
2021/11/20 03:32:06;0.00;0.00;0.62;0.00;0.00;0.62;3.40;2.27;;;22.80;32.30;;;;;;2237066;62;20363;-65
2021/11/20 03:34:53;0.00;0.00;0.62;0.00;0.00;0.62;3.60;2.20;;;22.80;32.30;;;;;;2237224;62;20444;-65
2021/11/20 03:37:41;0.00;0.00;0.62;0.00;0.00;0.62;4.40;2.20;;;22.80;32.30;;;;;;2237012;62;20418;-65
2021/11/20 03:40:27;0.00;0.00;0.62;0.00;0.00;0.62;2.67;1.83;;;22.80;32.30;;;;;;2236892;62;20404;-65
2021/11/20 03:43:12;0.00;0.00;0.62;0.00;0.00;0.62;3.17;1.90;;;22.70;32.20;;;;;;2236445;62;20371;-65
2021/11/20 03:45:58;0.00;0.00;0.62;0.00;0.00;0.62;3.40;2.10;;;22.70;32.20;;;;;;2237148;62;20398;-64
2021/11/20 03:48:43;0.00;0.00;0.62;0.00;0.00;0.62;2.27;1.90;;;22.70;32.20;;;;;;2237857;62;20391;-66
2021/11/20 03:51:29;0.00;0.00;0.62;0.00;0.00;0.62;2.70;2.00;;;22.70;32.20;;;;;;2236396;62;20391;-65
2021/11/20 03:54:16;0.00;0.00;0.62;0.00;0.00;0.62;2.90;1.80;;;22.70;32.20;;;;;;2236966;62;20727;-65
2021/11/20 03:57:00;0.00;0.00;0.62;0.00;0.00;0.62;2.43;1.90;;;22.70;32.20;;;;;;2237478;62;20395;-65
2021/11/20 03:59:48;0.00;0.00;0.62;0.00;0.00;0.62;2.83;1.77;;;22.70;32.30;;;;;;2236546;62;20408;-63
2021/11/20 04:02:34;0.00;0.00;0.62;0.00;0.00;0.62;3.53;2.20;;;22.70;32.30;;;;;;2236962;62;20653;-64
2021/11/20 04:05:20;0.00;0.00;0.62;0.00;0.00;0.62;3.63;1.97;;;22.60;32.20;;;;;;2236282;62;20439;-65
2021/11/20 04:08:05;0.00;0.00;0.62;0.00;0.00;0.62;5.80;2.87;;;22.60;32.20;;;;;;2237081;62;20763;-64
2021/11/20 04:10:56;0.00;0.00;0.62;0.00;0.00;0.62;4.80;2.00;;;22.70;32.30;;;;;;2237098;62;20408;-66
2021/11/20 04:13:43;0.00;0.00;0.62;0.00;0.00;0.62;2.47;1.83;;;22.60;32.30;;;;;;2236345;62;20477;-65
2021/11/20 04:16:14;0.00;0.00;0.62;0.00;0.00;0.62;4.27;2.07;;;22.60;32.30;;;;;;2236815;62;20468;-65
2021/11/20 04:18:44;0.00;0.00;0.62;0.00;0.00;0.62;3.43;2.13;;;22.60;32.30;;;;;;2237276;62;20384;-64
2021/11/20 04:21:29;0.00;0.00;0.62;0.00;0.00;0.62;3.50;1.90;;;22.60;32.30;;;;;;2236716;62;20469;-66
2021/11/20 04:24:16;0.00;0.00;0.62;0.00;0.00;0.62;2.50;1.90;;;22.60;32.30;;;;;;2236919;62;20367;-64
2021/11/20 04:27:21;0.00;0.00;0.62;0.00;0.00;0.62;3.57;2.67;;;22.60;32.30;;;;;;2236720;62;20391;-65
2021/11/20 04:30:27;0.00;0.00;0.62;0.00;0.00;0.62;4.53;1.83;;;22.60;32.30;;;;;;2237191;62;20447;-66
2021/11/20 04:33:13;0.00;0.00;0.62;0.00;0.00;0.62;5.13;2.77;;;22.60;32.40;;;;;;2237318;62;20427;-65
2021/11/20 04:35:58;0.00;0.00;0.62;0.00;0.00;0.62;2.97;1.90;;;22.60;32.40;;;;;;2236022;62;20456;-65
2021/11/20 04:38:43;0.00;0.00;0.62;0.00;0.00;0.62;4.40;2.50;;;22.60;32.40;;;;;;2236869;62;20551;-65
2021/11/20 04:41:28;0.00;0.00;0.62;0.00;0.00;0.62;2.80;2.17;;;22.60;32.40;;;;;;2236960;62;20359;-64
2021/11/20 04:44:14;0.00;0.00;0.62;0.00;0.00;0.62;3.60;2.03;;;22.60;32.40;;;;;;2236379;62;20436;-64
2021/11/20 04:46:59;0.00;0.00;0.62;0.00;0.00;0.62;3.60;2.20;;;22.50;32.30;;;;;;2236730;62;20508;-65
2021/11/20 04:49:45;0.00;0.00;0.62;0.00;0.00;0.62;3.93;3.00;;;22.50;32.30;;;;;;2233323;62;20469;-66
2021/11/20 04:52:31;0.00;0.00;0.62;0.00;0.00;0.62;5.97;2.60;;;22.50;32.30;;;;;;2237203;62;20372;-66
2021/11/20 04:55:19;0.00;0.00;0.62;0.00;0.00;0.62;3.23;2.33;;;22.50;32.30;;;;;;2237008;62;20380;-66
2021/11/20 04:58:05;0.00;0.00;0.62;0.00;0.00;0.62;3.40;2.27;;;22.50;32.40;;;;;;2235997;62;20386;-67
2021/11/20 05:00:54;0.00;0.00;0.62;0.00;0.00;0.62;4.13;3.07;;;22.50;32.30;;;;;;2236879;62;20419;-64
2021/11/20 05:03:45;0.00;0.00;0.62;0.00;0.00;0.62;6.33;2.67;;;22.50;32.40;;;;;;2236915;62;20364;-65
2021/11/20 05:06:30;0.00;0.00;0.62;0.00;0.00;0.62;3.10;2.70;;;22.40;32.30;;;;;;2236469;62;20727;-64
2021/11/20 05:09:15;0.00;0.00;0.62;0.00;0.00;0.62;4.40;3.00;;;22.50;32.40;;;;;;2237153;62;20451;-64
2021/11/20 05:12:10;0.00;0.00;0.62;0.00;0.00;0.62;4.50;3.53;;;22.50;32.40;;;;;;2236017;62;20736;-66
2021/11/20 05:14:56;0.00;0.00;0.62;0.00;0.00;0.62;4.60;4.13;;;22.40;32.30;;;;;;2237216;62;20364;-65
2021/11/20 05:17:43;0.00;0.00;0.62;0.00;0.00;0.62;5.30;4.27;;;22.40;32.40;;;;;;2236937;62;20439;-66
2021/11/20 05:20:39;0.00;0.00;0.62;0.00;0.00;0.62;5.07;3.73;;;22.40;32.40;;;;;;2235794;62;20390;-64
2021/11/20 05:23:24;0.00;0.00;0.62;0.00;0.00;0.62;8.00;3.30;;;22.40;32.40;;;;;;2236815;62;20395;-64
2021/11/20 05:26:12;0.00;0.00;0.62;0.00;0.00;0.62;5.93;3.70;;;22.40;32.40;;;;;;2236574;62;20370;-66
2021/11/20 05:29:25;0.00;0.00;0.62;0.00;0.00;0.62;4.50;4.10;;;22.40;32.40;;;;;;2237131;62;20367;-65
2021/11/20 05:32:16;0.00;0.00;0.62;0.00;0.00;0.62;4.60;4.10;;;22.40;32.50;;;;;;2236880;62;20400;-65
2021/11/20 05:35:06;0.00;0.00;0.62;0.00;0.00;0.62;4.57;4.17;;;22.40;32.50;;;;;;2236102;62;20415;-66
2021/11/20 05:37:52;0.00;0.00;0.62;0.00;0.00;0.62;6.23;5.03;;;22.30;32.50;;;;;;2236614;62;20395;-66
2021/11/20 05:40:38;0.00;0.00;0.62;0.00;0.00;0.62;7.50;5.97;;;22.30;32.50;;;;;;2236659;62;20477;-66
2021/11/20 05:43:26;0.00;0.00;0.62;0.00;0.00;0.62;6.30;5.70;;;22.30;32.50;;;;;;2236422;62;20392;-63
2021/11/20 05:46:19;0.00;0.00;0.62;0.00;0.00;0.62;7.37;6.67;;;22.30;32.50;;;;;;2236468;62;20367;-66
2021/11/20 05:49:05;0.00;0.00;0.62;0.00;0.00;0.62;6.30;5.70;;;22.30;32.50;;;;;;2233267;62;20548;-64
2021/11/20 05:51:51;0.00;0.00;0.62;0.00;0.00;0.62;5.23;4.73;;;22.30;32.50;;;;;;2237122;62;20443;-65
2021/11/20 05:54:17;0.00;0.00;0.62;0.00;0.00;0.62;11.13;9.10;;;22.30;32.50;;;;;;2236684;62;20368;-63
2021/11/20 05:56:47;0.00;0.00;0.62;0.00;0.00;0.62;8.13;7.30;;;22.30;32.50;;;;;;2235836;62;20404;-64
2021/11/20 05:59:14;0.00;0.00;0.62;0.00;0.00;0.62;9.77;6.50;;;22.30;32.50;;;;;;2237318;62;20459;-64
2021/11/20 06:01:41;0.00;0.00;0.62;0.00;0.00;0.62;8.47;6.93;;;22.20;32.40;;;;;;2237026;62;20568;-63
2021/11/20 06:04:08;0.00;0.00;0.62;0.00;0.00;0.62;9.53;6.77;;;22.20;32.40;;;;;;2235874;62;20352;-64
2021/11/20 06:06:55;0.00;0.00;0.62;0.00;0.00;0.62;7.20;6.27;;;22.20;32.50;;;;;;2236625;62;20408;-65
2021/11/20 06:09:42;0.00;0.00;0.62;0.00;0.00;0.62;8.03;7.00;;;22.20;32.50;;;;;;2236854;62;20701;-66
2021/11/20 06:12:27;0.00;0.00;0.62;0.00;0.00;0.62;7.13;5.60;;;22.20;32.50;;;;;;2236020;62;20375;-65
2021/11/20 06:15:13;0.00;0.00;0.62;0.00;0.00;0.62;6.57;5.97;;;22.20;32.60;;;;;;2236568;62;20587;-65
2021/11/20 06:17:57;0.00;0.00;0.62;0.00;0.00;0.62;6.97;6.30;;;22.20;32.60;;;;;;2237050;62;20382;-64
2021/11/20 06:20:44;0.00;0.00;0.62;0.00;0.00;0.62;9.17;7.10;;;22.20;32.60;;;;;;2236646;62;20559;-64
2021/11/20 06:23:33;0.00;0.00;0.62;0.00;0.00;0.62;7.43;6.73;;;22.10;32.60;;;;;;2236953;62;20715;-65
2021/11/20 06:26:24;0.00;0.00;0.62;0.00;0.00;0.62;8.73;6.60;;;22.10;32.60;;;;;;2235650;62;20375;-64
2021/11/20 06:29:09;0.00;0.00;0.62;0.00;0.00;0.62;9.53;6.67;;;22.10;32.60;;;;;;2236567;62;20731;-64
2021/11/20 06:31:55;0.00;0.00;0.62;0.00;0.00;0.62;8.67;7.03;;;22.10;32.60;;;;;;2237405;62;20669;-63
2021/11/20 06:34:55;0.00;0.00;0.62;0.00;0.00;0.62;8.73;7.73;;;22.10;32.60;;;;;;2236827;62;20374;-65
2021/11/20 06:37:48;0.00;0.00;0.62;0.00;0.00;0.62;9.13;8.30;;;22.10;32.60;;;;;;2237546;62;20467;-66
2021/11/20 06:40:42;0.00;0.00;0.62;0.00;0.00;0.62;9.40;8.40;;;22.10;32.70;;;;;;2236928;62;20671;-63
2021/11/20 06:43:29;0.00;0.00;0.62;0.00;0.00;0.62;9.37;7.40;;;22.10;32.70;;;;;;2237599;62;20407;-66
2021/11/20 06:46:16;0.00;0.00;0.62;0.00;0.00;0.62;9.10;8.17;;;22.00;32.60;;;;;;2237578;62;20367;-65
2021/11/20 06:49:02;0.00;0.00;0.62;0.00;0.00;0.62;9.07;8.07;;;22.00;32.60;;;;;;2236456;62;20367;-63
2021/11/20 06:51:51;0.00;0.00;0.62;0.00;0.00;0.62;9.00;8.07;;;22.00;32.60;;;;;;2237237;62;20427;-66
2021/11/20 06:54:54;0.00;0.00;0.62;0.00;0.00;0.62;8.60;7.90;;;22.00;32.70;;;;;;2237769;62;20444;-66
2021/11/20 06:58:09;0.00;0.00;0.62;0.00;0.00;0.62;7.53;6.80;;;22.00;32.70;;;;;;2237016;62;20808;-67
2021/11/20 07:01:12;0.00;0.00;0.62;0.00;0.00;0.62;10.17;8.53;;;22.00;32.80;;;;;;2237176;62;20391;-65
2021/11/20 07:04:14;0.00;0.00;0.62;0.00;0.00;0.62;10.13;8.90;;;22.00;32.80;;;;;;2236817;62;20412;-64
2021/11/20 07:07:09;0.00;0.00;0.62;0.00;0.00;0.62;9.33;8.20;;;21.90;32.70;;;;;;2237327;62;20387;-64
2021/11/20 07:09:55;0.00;0.00;0.62;0.00;0.00;0.62;10.80;9.63;;;21.90;32.70;;;;;;2237327;62;20367;-64
2021/11/20 07:12:40;0.00;0.00;0.62;0.00;0.00;0.62;10.93;9.07;;;21.90;32.80;;;;;;2237629;62;20395;-66
2021/11/20 07:15:27;0.00;0.00;0.62;0.00;0.00;0.62;9.67;8.60;;;21.80;32.70;;;;;;2237303;62;20747;-67
2021/11/20 07:18:12;0.00;0.00;0.62;0.00;0.00;0.62;11.57;8.50;;;21.80;32.80;;;;;;2237161;62;20484;-65
2021/11/20 07:21:35;0.00;0.00;0.62;0.00;0.00;0.62;11.87;9.27;;;21.80;32.80;;;;;;2236718;62;20368;-62
2021/11/20 07:24:27;0.00;0.00;0.62;0.00;0.00;0.62;12.10;10.90;;;21.80;32.80;;;;;;2237080;62;20404;-64
2021/11/20 07:27:12;0.00;0.00;0.62;0.00;0.00;0.62;12.70;11.40;;;21.70;32.70;;;;;;2239241;62;20399;-65
2021/11/20 07:29:39;0.00;0.00;0.62;0.00;0.00;0.62;11.00;9.90;;;21.70;32.60;;;;;;2237000;62;20356;-64
2021/11/20 07:32:27;0.00;0.00;0.62;0.00;0.00;0.62;11.20;10.10;;;21.70;32.70;;;;;;2236709;62;20359;-63
2021/11/20 07:35:21;0.00;0.00;0.62;0.00;0.00;0.62;10.67;9.70;;;21.60;32.80;;;;;;2237428;62;20420;-67
2021/11/20 07:38:08;0.00;0.00;0.62;0.00;0.00;0.62;10.57;8.80;;;21.50;32.80;;;;;;2237419;62;20420;-66
2021/11/20 07:40:54;0.00;0.00;0.62;0.00;0.00;0.62;9.20;8.40;;;21.50;33.70;;;;;;2237132;62;20364;-66
2021/11/20 07:43:39;0.00;0.00;0.62;0.00;0.00;0.62;8.97;8.10;;;21.50;33.80;;;;;;2234093;62;20727;-68
2021/11/20 07:46:35;0.00;0.00;0.62;0.00;0.00;0.62;8.13;7.33;;;21.50;33.20;;;;;;2237429;62;20364;-62
2021/11/20 07:49:25;0.00;0.00;0.62;0.00;0.00;0.62;8.87;8.07;;;21.50;33.30;;;;;;2237009;62;20403;-63
2021/11/20 07:52:10;0.00;0.00;0.62;0.00;0.00;0.62;7.60;6.80;;;21.40;33.20;;;;;;2237012;62;20774;-63
2021/11/20 07:54:55;0.00;0.00;0.62;0.00;0.00;0.62;10.40;7.63;;;21.50;33.30;;;;;;2236601;62;20760;-61
2021/11/20 07:57:49;0.00;0.00;0.62;0.00;0.00;0.62;7.07;6.07;;;21.50;33.20;;;;;;2237218;62;20463;-63
2021/11/20 08:00:36;0.00;0.00;0.62;0.00;0.00;0.62;13.10;5.47;;;21.50;33.30;;;;;;2237387;62;20364;-63
2021/11/20 08:03:25;0.00;0.00;0.62;0.00;0.00;0.62;5.50;3.57;;;21.50;33.30;;;;;;2236513;62;20436;-63
2021/11/20 08:06:15;0.00;0.00;0.62;0.00;0.00;0.62;3.93;3.53;;;21.50;33.20;;;;;;2237217;62;20653;-63
2021/11/20 08:09:13;0.00;0.00;0.62;0.00;0.00;0.62;4.27;3.40;;;21.50;33.20;;;;;;2236992;62;20427;-62
2021/11/20 08:12:16;0.00;0.00;0.62;0.00;0.00;0.62;4.60;2.80;;;21.60;33.20;;;;;;2237785;62;20367;-63
2021/11/20 08:15:21;0.00;0.00;0.62;0.00;0.00;0.62;2.43;2.23;;;21.60;33.20;;;;;;2237821;62;20382;-62
2021/11/20 08:18:16;0.00;0.00;0.62;0.00;0.00;0.62;2.67;2.23;;;21.60;33.10;;;;;;2236491;62;20424;-62
2021/11/20 08:21:25;0.00;0.00;0.62;0.00;0.00;0.62;2.83;2.47;;;21.70;33.20;;;;;;2237365;62;20404;-63
2021/11/20 08:24:16;0.00;0.00;0.62;0.00;0.00;0.62;3.07;2.30;;;21.70;33.20;;;;;;2236595;62;20575;-63
2021/11/20 08:27:07;0.00;0.00;0.62;0.00;0.00;0.62;3.50;2.70;;;21.70;33.10;;;;;;2237146;62;20391;-62
2021/11/20 08:29:57;0.00;0.00;0.62;0.00;0.00;0.62;3.60;2.37;;;21.70;33.10;;;;;;2234833;62;20557;-63
2021/11/20 08:32:46;0.00;0.00;0.62;0.00;0.00;0.62;2.87;2.07;;;21.80;33.10;;;;;;2236516;62;20367;-63
2021/11/20 08:35:38;0.00;0.00;0.62;0.00;0.00;0.62;2.00;1.80;;;21.80;33.10;;;;;;2237224;62;20364;-62
2021/11/20 08:38:47;0.00;0.00;0.62;0.00;0.00;0.62;2.00;1.80;;;21.80;33.00;;;;;;2237121;62;20426;-62
2021/11/20 08:41:38;0.00;0.00;0.62;0.00;0.00;0.62;1.60;1.50;;;21.90;33.10;;;;;;2237425;62;20407;-63
2021/11/20 08:44:26;0.00;0.00;0.62;0.00;0.00;0.62;1.83;1.63;;;21.90;33.10;;;;;;2237106;62;20735;-63
2021/11/20 08:47:17;0.00;0.00;0.62;0.00;0.00;0.62;1.97;1.77;;;21.90;33.00;;;;;;2236355;62;20747;-63
2021/11/20 08:50:05;0.00;0.00;0.62;0.00;0.00;0.62;2.60;1.80;;;22.00;33.10;;;;;;2237304;62;20367;-63
2021/11/20 08:52:50;0.00;0.00;0.62;0.00;0.00;0.62;2.73;1.97;;;22.00;33.00;;;;;;2237330;62;20735;-62
2021/11/20 08:55:38;0.00;0.00;0.62;0.00;0.00;0.62;2.30;1.93;;;22.00;33.00;;;;;;2236331;62;20431;-62
2021/11/20 08:58:38;0.00;0.00;0.62;0.00;0.00;0.62;2.03;1.60;;;22.00;33.00;;;;;;2236902;62;20386;-63
2021/11/20 09:01:29;0.00;0.00;0.62;0.00;0.00;0.62;1.57;1.40;;;22.00;32.90;;;;;;2236442;62;20474;-62
2021/11/20 09:04:25;0.00;0.00;0.62;0.00;0.00;0.62;2.83;1.70;;;22.10;33.00;;;;;;2237680;62;20416;-62
2021/11/20 09:07:28;0.00;0.00;0.62;0.00;0.00;0.62;1.60;1.37;;;22.10;33.00;;;;;;2237370;62;20763;-62
2021/11/20 09:10:19;0.00;0.00;0.62;0.00;0.00;0.62;1.97;1.77;;;22.10;32.90;;;;;;2236394;62;20367;-62
2021/11/20 09:13:12;0.00;0.00;0.62;0.00;0.00;0.62;2.53;1.77;;;22.10;32.90;;;;;;2236885;62;20403;-63
2021/11/20 09:16:02;0.00;0.00;0.62;0.00;0.00;0.62;1.80;1.43;;;22.20;32.90;;;;;;2236438;62;20367;-62
2021/11/20 09:18:50;0.00;0.00;0.62;0.00;0.00;0.62;1.70;1.30;;;22.20;32.90;;;;;;2237194;62;20412;-63
2021/11/20 09:21:36;0.00;0.00;0.62;0.00;0.00;0.62;2.60;1.70;;;22.20;32.80;;;;;;2236764;62;20400;-63
2021/11/20 09:24:49;0.00;0.00;0.62;0.00;0.00;0.62;2.03;1.77;;;22.20;32.80;;;;;;2236765;62;20403;-62
2021/11/20 09:27:39;0.00;0.00;0.62;0.00;0.00;0.62;2.10;1.30;;;22.20;32.80;;;;;;2236619;62;20390;-63
2021/11/20 09:30:32;0.00;0.00;0.62;0.00;0.00;0.62;2.43;1.80;;;22.30;32.80;;;;;;2237120;62;20620;-63
2021/11/20 09:33:16;0.00;0.00;0.62;0.00;0.00;0.62;1.77;1.43;;;22.30;32.80;;;;;;2237220;62;20367;-62
2021/11/20 09:36:02;0.00;0.00;0.62;0.00;0.00;0.62;2.00;1.20;;;22.30;33.50;;;;;;2237268;62;20391;-63
2021/11/20 09:39:09;0.00;0.00;0.62;0.00;0.00;0.62;2.20;1.70;;;22.30;32.80;;;;;;2236742;62;20371;-63
2021/11/20 09:42:33;0.00;0.00;0.62;0.00;0.00;0.62;1.63;1.53;;;22.30;32.80;;;;;;2236837;62;20387;-62
2021/11/20 09:45:21;0.00;0.00;0.62;0.00;0.00;0.62;2.60;1.70;;;22.30;32.70;;;;;;2236915;62;20368;-63
2021/11/20 09:48:21;0.00;0.00;0.62;0.00;0.00;0.62;1.60;1.30;;;22.30;32.70;;;;;;2237214;62;20432;-62
2021/11/20 09:51:18;0.00;0.00;0.62;0.00;0.00;0.62;1.50;1.20;;;22.30;32.70;;;;;;2236811;62;20391;-62
2021/11/20 09:54:08;0.00;0.00;0.62;0.00;0.00;0.62;1.60;1.23;;;22.40;32.70;;;;;;2236266;62;20367;-63
2021/11/20 09:56:58;0.00;0.00;0.62;0.00;0.00;0.62;1.70;1.10;;;22.40;32.70;;;;;;2237039;62;20408;-63
2021/11/20 09:59:52;0.00;0.00;0.62;0.00;0.00;0.62;1.60;1.13;;;22.40;32.70;;;;;;2237479;62;20399;-63
2021/11/20 10:02:51;0.00;0.00;0.62;0.00;0.00;0.62;1.60;1.23;;;22.40;32.60;;;;;;2237200;62;20374;-62
2021/11/20 10:05:41;0.00;0.00;0.62;0.00;0.00;0.62;2.00;1.30;;;22.40;32.60;;;;;;2237077;62;20359;-62
2021/11/20 10:08:28;0.00;0.00;0.62;0.00;0.00;0.62;1.73;1.37;;;22.40;33.30;;;;;;2237431;62;20778;-66
2021/11/20 10:11:27;0.00;0.00;0.62;0.00;0.00;0.62;2.10;1.27;;;22.40;32.60;;;;;;2237827;62;20467;-63
2021/11/20 10:14:17;0.00;0.00;0.62;0.00;0.00;0.62;1.40;1.20;;;22.50;32.70;;;;;;2238199;62;20427;-64
2021/11/20 10:17:19;0.00;0.00;0.62;0.00;0.00;0.62;1.67;1.00;;;22.50;32.80;;;;;;2237411;62;20390;-62
2021/11/20 10:20:40;0.00;0.00;0.62;0.00;0.00;0.62;4.13;1.20;;;22.50;32.70;;;;;;2237666;62;20735;-62
2021/11/20 10:23:42;0.00;0.00;0.62;0.00;0.00;0.62;1.30;0.90;;;22.50;32.70;;;;;;2237428;62;20468;-63
2021/11/20 10:26:46;0.00;0.00;0.62;0.00;0.00;0.62;1.60;1.20;;;22.50;32.70;;;;;;2237510;62;20400;-61
2021/11/20 10:30:26;0.00;0.00;0.62;0.00;0.00;0.62;1.40;1.10;;;22.60;32.80;;;;;;2237801;62;20370;-63
2021/11/20 10:33:18;0.00;0.00;0.62;0.00;0.00;0.62;1.80;1.10;;;22.60;32.80;;;;;;2238023;62;20869;-63
2021/11/20 10:36:13;0.00;0.00;0.62;0.00;0.00;0.62;1.57;1.03;;;22.60;32.80;;;;;;2238006;62;20367;-65
2021/11/20 10:39:08;0.00;0.00;0.62;0.00;0.00;0.62;1.63;1.13;;;22.60;32.70;;;;;;2237353;62;20394;-64
2021/11/20 10:41:57;0.00;0.00;0.62;0.00;0.00;0.62;1.67;1.37;;;22.60;32.70;;;;;;2237270;62;20395;-63
2021/11/20 10:44:48;0.00;0.00;0.62;0.00;0.00;0.62;2.00;1.17;;;22.60;32.60;;;;;;2237764;62;20383;-63
2021/11/20 10:47:52;0.00;0.00;0.62;0.00;0.00;0.62;1.30;0.97;;;22.60;32.60;;;;;;2237809;62;20414;-63
2021/11/20 10:50:41;0.00;0.00;0.62;0.00;0.00;0.62;1.40;1.10;;;22.70;32.70;;;;;;2238080;62;20375;-63
2021/11/20 10:54:19;0.00;0.00;0.62;0.00;0.00;0.62;1.53;1.13;;;22.70;32.60;;;;;;2236861;62;20359;-63
2021/11/20 10:57:11;0.00;0.00;0.62;0.00;0.00;0.62;1.70;1.20;;;22.70;32.60;;;;;;2233490;62;20419;-63
2021/11/20 11:00:23;0.00;0.00;0.62;0.00;0.00;0.62;1.30;0.90;;;22.70;32.60;;;;;;2237471;62;20765;-64
2021/11/20 11:03:38;0.00;0.00;0.62;0.00;0.00;0.62;1.87;1.17;;;22.70;32.60;;;;;;2237748;62;20367;-62
2021/11/20 11:06:51;0.00;0.00;0.62;0.00;0.00;0.62;1.53;1.03;;;22.70;32.50;;;;;;2238014;62;20589;-64
2021/11/20 11:09:49;0.00;0.00;0.62;0.00;0.00;0.62;1.50;1.10;;;22.70;32.50;;;;;;2238125;62;20359;-63
2021/11/20 11:12:42;0.00;0.00;0.62;0.00;0.00;0.62;1.43;0.93;;;22.70;32.50;;;;;;2237960;62;20384;-63
2021/11/20 11:15:59;0.00;0.00;0.62;0.00;0.00;0.62;3.50;1.20;;;22.70;32.50;;;;;;2236868;62;20396;-64
2021/11/20 11:18:48;0.00;0.00;0.62;0.00;0.00;0.62;2.13;1.30;;;22.70;32.40;;;;;;2237644;62;20391;-63